createdAt,value
2022-11-17T00:00:13.207Z,10.90
2022-11-17T00:02:40.251Z,11.07
2022-11-17T00:05:07.905Z,10.07
2022-11-17T00:07:34.988Z,13.63
2022-11-17T00:10:02.076Z,13.27
2022-11-17T00:12:47.556Z,14.20
2022-11-17T00:15:14.574Z,12.97
2022-11-17T00:17:41.516Z,11.67
2022-11-17T00:20:30.051Z,11.53
2022-11-17T00:22:57.057Z,10.27
2022-11-17T00:25:24.079Z,11.50
2022-11-17T00:27:51.099Z,10.20
2022-11-17T00:30:36.836Z,11.37
2022-11-17T00:33:23.201Z,12.20
2022-11-17T00:35:53.498Z,11.70
2022-11-17T00:38:20.641Z,15.87
2022-11-17T00:40:47.736Z,14.83
2022-11-17T00:43:14.798Z,13.23
2022-11-17T00:45:41.915Z,12.20
2022-11-17T00:48:08.871Z,10.63
2022-11-17T00:50:35.980Z,11.40
2022-11-17T00:53:03.035Z,13.13
2022-11-17T00:55:30.103Z,12.47
2022-11-17T00:57:57.163Z,11.57
2022-11-17T01:00:24.155Z,12.63
2022-11-17T01:02:51.137Z,13.17
2022-11-17T01:05:18.212Z,10.90
2022-11-17T01:07:46.877Z,10.60
2022-11-17T01:10:14.164Z,11.53
2022-11-17T01:12:41.156Z,10.87
2022-11-17T01:15:09.522Z,9.47
2022-11-17T01:17:36.619Z,10.30
2022-11-17T01:20:04.439Z,9.57
2022-11-17T01:22:31.384Z,8.37
2022-11-17T01:24:58.427Z,11.03
2022-11-17T01:27:25.432Z,9.90
2022-11-17T01:29:52.600Z,10.93
2022-11-17T01:32:19.580Z,12.83
2022-11-17T01:34:47.645Z,11.40
2022-11-17T01:37:20.468Z,10.77
2022-11-17T01:39:49.511Z,9.37
2022-11-17T01:42:24.665Z,11.20
2022-11-17T01:45:20.724Z,12.17
2022-11-17T01:48:01.499Z,11.17
2022-11-17T01:50:43.550Z,10.17
2022-11-17T01:53:22.236Z,10.47
2022-11-17T01:55:59.508Z,10.63
2022-11-17T01:58:39.956Z,9.80
2022-11-17T02:01:07.092Z,9.73
2022-11-17T02:03:36.587Z,10.00
2022-11-17T02:06:16.328Z,11.43
2022-11-17T02:08:46.907Z,12.30
2022-11-17T02:11:18.797Z,11.87
2022-11-17T02:13:46.267Z,12.93
2022-11-17T02:16:16.468Z,9.90
2022-11-17T02:18:45.452Z,10.53
2022-11-17T02:21:36.390Z,8.57
2022-11-17T02:24:55.939Z,9.57
2022-11-17T02:27:34.289Z,12.40
2022-11-17T02:30:16.701Z,10.97
2022-11-17T02:33:06.883Z,8.87
2022-11-17T02:36:07.025Z,9.97
2022-11-17T02:38:58.162Z,10.53
2022-11-17T02:41:34.841Z,9.63
2022-11-17T02:44:09.314Z,8.67
2022-11-17T02:46:57.793Z,13.80
2022-11-17T02:49:34.102Z,9.20
2022-11-17T02:52:02.404Z,9.63
2022-11-17T02:54:32.165Z,9.43
2022-11-17T02:56:59.984Z,12.03
2022-11-17T02:59:37.713Z,10.97
2022-11-17T03:02:28.007Z,9.73
2022-11-17T03:05:15.181Z,11.10
2022-11-17T03:08:09.221Z,9.20
2022-11-17T03:11:12.368Z,8.80
2022-11-17T03:14:07.016Z,10.27
2022-11-17T03:17:06.693Z,10.30
2022-11-17T03:19:44.736Z,9.00
2022-11-17T03:22:30.413Z,11.10
2022-11-17T03:25:06.810Z,9.03
2022-11-17T03:27:40.236Z,9.37
2022-11-17T03:30:10.442Z,9.50
2022-11-17T03:32:45.898Z,9.77
2022-11-17T03:35:23.770Z,9.27
2022-11-17T03:37:57.053Z,12.10
2022-11-17T03:40:30.038Z,9.97
2022-11-17T03:43:02.355Z,9.53
2022-11-17T03:45:44.226Z,8.27
2022-11-17T03:48:30.344Z,9.63
2022-11-17T03:51:11.223Z,9.80
2022-11-17T03:53:38.521Z,9.20
2022-11-17T03:57:04.321Z,10.77
2022-11-17T03:59:43.128Z,9.63
2022-11-17T04:02:19.415Z,9.80
2022-11-17T04:05:05.410Z,11.20
2022-11-17T04:07:42.702Z,11.03
2022-11-17T04:10:20.166Z,10.00
2022-11-17T04:13:07.839Z,11.67
2022-11-17T04:15:54.336Z,12.27
2022-11-17T04:18:22.939Z,11.37
2022-11-17T04:20:54.039Z,11.67
2022-11-17T04:23:22.533Z,10.90
2022-11-17T04:26:12.750Z,12.90
2022-11-17T04:28:46.551Z,10.23
2022-11-17T04:31:22.600Z,11.57
2022-11-17T04:33:57.128Z,11.73
2022-11-17T04:36:29.616Z,11.33
2022-11-17T04:38:59.656Z,10.53
2022-11-17T04:41:48.382Z,13.50
2022-11-17T04:44:17.765Z,10.77
2022-11-17T04:46:46.116Z,13.70
2022-11-17T04:49:16.375Z,10.20
2022-11-17T04:51:43.821Z,12.70
2022-11-17T04:54:15.217Z,11.87
2022-11-17T04:56:43.119Z,12.40
2022-11-17T04:59:10.589Z,12.87
2022-11-17T05:01:38.407Z,13.33
2022-11-17T05:04:09.872Z,15.03
2022-11-17T05:06:45.021Z,11.10
2022-11-17T05:09:16.608Z,14.57
2022-11-17T05:12:02.537Z,13.20
2022-11-17T05:14:30.346Z,12.80
2022-11-17T05:17:11.258Z,12.60
2022-11-17T05:19:47.256Z,12.80
2022-11-17T05:22:42.490Z,14.03
2022-11-17T05:25:10.218Z,13.23
2022-11-17T05:27:37.532Z,14.87
2022-11-17T05:30:07.986Z,15.43
2022-11-17T05:32:36.473Z,13.60
2022-11-17T05:35:03.730Z,12.17
2022-11-17T05:37:30.697Z,12.17
2022-11-17T05:39:57.733Z,13.90
2022-11-17T05:42:24.812Z,12.80
2022-11-17T05:44:51.860Z,13.57
2022-11-17T05:47:18.830Z,13.60
2022-11-17T05:49:48.577Z,13.87
2022-11-17T05:52:15.705Z,14.07
2022-11-17T05:54:42.892Z,12.73
2022-11-17T05:57:17.101Z,13.90
2022-11-17T05:59:59.606Z,14.37
2022-11-17T06:02:37.404Z,14.20
2022-11-17T06:05:05.794Z,12.40
2022-11-17T06:07:37.111Z,13.37
2022-11-17T06:10:05.008Z,14.93
2022-11-17T06:12:31.968Z,15.20
2022-11-17T06:14:59.009Z,13.00
2022-11-17T06:17:43.058Z,14.70
2022-11-17T06:20:28.051Z,14.70
2022-11-17T06:23:00.402Z,21.30
2022-11-17T06:25:28.419Z,15.07
2022-11-17T06:27:57.025Z,14.33
2022-11-17T06:30:24.390Z,14.80
2022-11-17T06:32:52.934Z,12.43
2022-11-17T06:35:20.164Z,17.47
2022-11-17T06:37:47.161Z,15.80
2022-11-17T06:40:14.638Z,15.63
2022-11-17T06:43:00.381Z,14.13
2022-11-17T06:45:27.377Z,16.30
2022-11-17T06:47:54.837Z,14.93
2022-11-17T06:50:22.233Z,15.03
2022-11-17T06:52:50.770Z,13.93
2022-11-17T06:55:18.558Z,14.47
2022-11-17T06:57:50.340Z,14.03
2022-11-17T07:00:20.763Z,13.57
2022-11-17T07:02:47.772Z,15.40
2022-11-17T07:05:17.989Z,16.50
2022-11-17T07:08:12.603Z,16.07
2022-11-17T07:10:41.645Z,14.07
2022-11-17T07:13:11.992Z,13.37
2022-11-17T07:15:39.071Z,17.13
2022-11-17T07:18:06.176Z,14.07
2022-11-17T07:20:33.243Z,16.43
2022-11-17T07:23:00.501Z,12.80
2022-11-17T07:25:39.496Z,14.37
2022-11-17T07:28:07.080Z,15.33
2022-11-17T07:30:35.002Z,13.90
2022-11-17T07:33:02.351Z,13.50
2022-11-17T07:35:31.728Z,13.90
2022-11-17T07:38:01.391Z,18.90
2022-11-17T07:40:30.932Z,12.43
2022-11-17T07:42:57.937Z,14.07
2022-11-17T07:45:28.666Z,13.33
2022-11-17T07:48:04.913Z,14.40
2022-11-17T07:50:33.476Z,15.20
2022-11-17T07:53:00.603Z,12.97
2022-11-17T07:55:28.106Z,14.13
2022-11-17T07:58:00.917Z,14.33
2022-11-17T08:00:31.768Z,15.03
2022-11-17T08:03:04.552Z,13.90
2022-11-17T08:05:40.089Z,13.70
2022-11-17T08:08:09.380Z,15.10
2022-11-17T08:10:36.855Z,13.97
2022-11-17T08:13:04.475Z,15.37
2022-11-17T08:15:31.919Z,16.27
2022-11-17T08:18:01.231Z,15.37
2022-11-17T08:20:29.543Z,13.33
2022-11-17T08:22:57.336Z,10.80
2022-11-17T08:25:26.998Z,14.27
2022-11-17T08:27:59.181Z,16.53
2022-11-17T08:30:26.835Z,15.90
2022-11-17T08:32:55.300Z,17.27
2022-11-17T08:35:26.594Z,13.80
2022-11-17T08:37:55.416Z,16.23
2022-11-17T08:40:22.645Z,14.30
2022-11-17T08:43:00.425Z,19.67
2022-11-17T08:45:28.744Z,17.77
2022-11-17T08:47:58.423Z,18.07
2022-11-17T08:50:26.773Z,18.90
2022-11-17T08:52:54.192Z,15.03
2022-11-17T08:55:21.304Z,17.00
2022-11-17T08:57:48.419Z,14.73
2022-11-17T09:00:16.637Z,14.27
2022-11-17T09:02:43.908Z,15.83
2022-11-17T09:05:10.846Z,13.83
2022-11-17T09:07:38.137Z,14.33
2022-11-17T09:10:06.319Z,19.70
2022-11-17T09:12:33.415Z,15.63
2022-11-17T09:15:00.453Z,14.20
2022-11-17T09:17:27.545Z,18.93
2022-11-17T09:20:11.638Z,15.23
2022-11-17T09:22:38.632Z,18.43
2022-11-17T09:25:11.875Z,13.93
2022-11-17T09:27:40.930Z,14.57
2022-11-17T09:30:09.171Z,15.07
2022-11-17T09:32:36.270Z,15.20
2022-11-17T09:35:07.012Z,13.03
2022-11-17T09:37:34.242Z,15.47
2022-11-17T09:40:01.277Z,16.17
2022-11-17T09:42:33.010Z,12.00
2022-11-17T09:45:27.952Z,15.10
2022-11-17T09:48:33.720Z,17.30
2022-11-17T09:50:50.498Z,15.30
2022-11-17T09:53:57.136Z,16.60
2022-11-17T09:56:27.264Z,15.13
2022-11-17T09:59:01.366Z,14.00
2022-11-17T10:01:29.671Z,13.33
2022-11-17T10:03:59.304Z,14.50
2022-11-17T10:06:31.448Z,12.33
2022-11-17T10:09:43.900Z,12.60
2022-11-17T10:12:23.733Z,15.47
2022-11-17T10:14:54.098Z,12.73
2022-11-17T10:17:21.191Z,13.47
2022-11-17T10:19:48.312Z,12.17
2022-11-17T10:22:36.747Z,13.57
2022-11-17T10:25:04.339Z,12.50
2022-11-17T10:27:35.215Z,15.83
2022-11-17T10:30:25.884Z,13.17
2022-11-17T10:32:57.076Z,15.50
2022-11-17T10:35:34.701Z,12.03
2022-11-17T10:38:20.955Z,11.80
2022-11-17T10:40:51.580Z,11.43
2022-11-17T10:43:28.762Z,13.87
2022-11-17T10:46:06.230Z,11.53
2022-11-17T10:48:54.250Z,12.60
2022-11-17T10:51:23.614Z,11.13
2022-11-17T10:54:20.907Z,11.50
2022-11-17T10:56:57.464Z,18.10
2022-11-17T10:59:42.298Z,10.27
2022-11-17T11:02:31.647Z,13.73
2022-11-17T11:05:21.200Z,10.00
2022-11-17T11:07:48.401Z,12.73
2022-11-17T11:10:26.993Z,11.40
2022-11-17T11:13:31.058Z,11.63
2022-11-17T11:15:58.417Z,13.93
2022-11-17T11:18:30.328Z,14.43
2022-11-17T11:21:14.848Z,13.10
2022-11-17T11:24:00.295Z,11.67
2022-11-17T11:26:56.815Z,10.63
2022-11-17T11:30:05.937Z,12.20
2022-11-17T11:33:18.318Z,14.20
2022-11-17T11:36:22.646Z,12.80
2022-11-17T11:39:37.981Z,10.87
2022-11-17T11:42:19.130Z,12.57
2022-11-17T11:45:18.036Z,11.37
2022-11-17T11:48:01.649Z,11.17
2022-11-17T11:50:53.297Z,12.83
2022-11-17T11:53:33.770Z,11.63
2022-11-17T11:56:35.972Z,11.37
2022-11-17T11:59:22.034Z,9.87
2022-11-17T12:02:06.001Z,14.77
2022-11-17T12:04:51.484Z,12.30
2022-11-17T12:07:48.462Z,15.83
2022-11-17T12:10:49.405Z,10.93
2022-11-17T12:13:22.609Z,11.87
2022-11-17T12:15:49.765Z,11.33
2022-11-17T12:18:19.403Z,13.00
2022-11-17T12:21:05.797Z,10.37
2022-11-17T12:24:20.646Z,11.07
2022-11-17T12:26:47.626Z,13.03
2022-11-17T12:29:20.273Z,9.53
2022-11-17T12:32:02.391Z,11.13
2022-11-17T12:34:40.170Z,11.40
2022-11-17T12:37:19.342Z,12.00
2022-11-17T12:40:02.159Z,13.90
2022-11-17T12:42:32.875Z,10.60
2022-11-17T12:45:04.460Z,11.13
2022-11-17T12:48:26.501Z,11.40
2022-11-17T12:51:55.567Z,12.80
2022-11-17T12:54:44.352Z,10.10
2022-11-17T12:57:25.396Z,14.60
2022-11-17T13:00:24.557Z,11.43
2022-11-17T13:03:17.527Z,11.40
2022-11-17T13:05:44.643Z,12.50
2022-11-17T13:08:23.374Z,12.33
2022-11-17T13:10:54.234Z,11.40
2022-11-17T13:13:25.463Z,12.40
2022-11-17T13:16:00.562Z,12.23
2022-11-17T13:18:43.159Z,12.37
2022-11-17T13:21:32.136Z,13.00
2022-11-17T13:28:32.174Z,11.63
2022-11-17T13:31:01.142Z,12.60
2022-11-17T13:33:30.935Z,12.73
2022-11-17T13:36:19.825Z,12.37
2022-11-17T13:38:50.302Z,12.70
2022-11-17T13:41:21.426Z,12.73
2022-11-17T13:43:50.440Z,13.57
2022-11-17T13:46:18.348Z,13.33
2022-11-17T13:48:48.970Z,12.00
2022-11-17T13:51:40.660Z,11.60
2022-11-17T13:54:18.606Z,15.37
2022-11-17T13:56:56.000Z,11.57
2022-11-17T13:59:33.839Z,12.03
2022-11-17T14:02:19.305Z,12.63
2022-11-17T14:05:13.396Z,11.93
2022-11-17T14:07:43.039Z,12.73
2022-11-17T14:10:21.934Z,13.50
2022-11-17T14:13:02.397Z,14.47
2022-11-17T14:15:47.950Z,13.37
2022-11-17T14:18:38.133Z,18.93
2022-11-17T14:21:17.293Z,17.57
2022-11-17T14:23:45.191Z,12.87
2022-11-17T14:26:25.260Z,17.57
2022-11-17T14:28:53.242Z,30.17
2022-11-17T14:31:20.507Z,205.97
2022-11-17T14:33:47.604Z,279.13
2022-11-17T14:36:17.315Z,63.30
2022-11-17T14:38:49.648Z,45.17
2022-11-17T14:41:18.904Z,32.60
2022-11-17T14:43:46.743Z,73.60
2022-11-17T14:46:26.386Z,68.10
2022-11-17T14:48:55.436Z,44.97
2022-11-17T14:51:22.987Z,40.00
2022-11-17T14:53:50.834Z,22.73
2022-11-17T14:56:22.696Z,22.50
2022-11-17T14:58:57.114Z,28.80
2022-11-17T15:01:34.690Z,20.23
2022-11-17T15:04:27.061Z,26.60
2022-11-17T15:06:51.768Z,27.77
2022-11-17T15:09:20.515Z,17.80
2022-11-17T15:11:48.207Z,17.37
2022-11-17T15:14:15.584Z,18.67
2022-11-17T15:16:43.118Z,19.93
2022-11-17T15:19:10.286Z,20.37
2022-11-17T15:21:37.379Z,19.67
2022-11-17T15:24:06.444Z,25.10
2022-11-17T15:26:34.100Z,36.07
2022-11-17T15:29:20.489Z,24.27
2022-11-17T15:31:48.069Z,17.30
2022-11-17T15:34:19.940Z,21.83
2022-11-17T15:36:48.960Z,20.07
2022-11-17T15:39:17.002Z,17.97
2022-11-17T15:41:45.160Z,20.57
2022-11-17T15:44:12.137Z,17.90
2022-11-17T15:46:44.342Z,21.60
2022-11-17T15:49:14.604Z,20.27
2022-11-17T15:51:41.775Z,18.07
2022-11-17T15:54:16.678Z,19.20
2022-11-17T15:56:47.578Z,19.73
2022-11-17T15:59:15.207Z,19.23
2022-11-17T16:01:42.524Z,21.53
2022-11-17T16:04:14.671Z,20.33
2022-11-17T16:06:44.958Z,19.07
2022-11-17T16:09:17.489Z,19.20
2022-11-17T16:11:47.483Z,20.17
2022-11-17T16:14:14.996Z,18.97
2022-11-17T16:16:43.674Z,18.07
2022-11-17T16:19:10.851Z,21.17
2022-11-17T16:21:38.629Z,19.13
2022-11-17T16:24:07.997Z,21.97
2022-11-17T16:26:35.761Z,21.93
2022-11-17T16:29:07.408Z,20.13
2022-11-17T16:31:36.629Z,17.40
2022-11-17T16:34:21.799Z,18.80
2022-11-17T16:36:48.830Z,17.07
2022-11-17T16:39:17.379Z,17.23
2022-11-17T16:41:46.573Z,17.40
2022-11-17T16:44:18.152Z,18.57
2022-11-17T16:46:50.091Z,18.67
2022-11-17T16:49:19.917Z,22.57
2022-11-17T16:52:10.469Z,20.13
2022-11-17T16:54:37.754Z,23.17
2022-11-17T16:57:04.918Z,20.27
2022-11-17T16:59:31.994Z,22.10
2022-11-17T17:01:59.044Z,21.40
2022-11-17T17:04:30.519Z,22.73
2022-11-17T17:06:58.357Z,21.97
2022-11-17T17:09:28.055Z,24.03
2022-11-17T17:12:02.815Z,23.00
2022-11-17T17:14:29.951Z,22.77
2022-11-17T17:16:57.217Z,22.00
2022-11-17T17:19:24.380Z,24.23
2022-11-17T17:21:52.924Z,20.90
2022-11-17T17:24:19.973Z,21.10
2022-11-17T17:26:47.472Z,31.43
2022-11-17T17:29:14.952Z,42.50
2022-11-17T17:31:42.718Z,36.73
2022-11-17T17:34:14.168Z,25.90
2022-11-17T17:36:41.449Z,25.73
2022-11-17T17:39:08.443Z,24.90
2022-11-17T17:41:40.815Z,25.60
2022-11-17T17:44:08.893Z,26.77
2022-11-17T17:46:38.647Z,23.17
2022-11-17T17:49:06.804Z,26.57
2022-11-17T17:51:44.217Z,25.97
2022-11-17T17:54:21.132Z,26.03
2022-11-17T17:56:48.822Z,25.83
2022-11-17T17:59:16.658Z,25.50
2022-11-17T18:01:46.108Z,27.20
2022-11-17T18:04:16.242Z,25.33
2022-11-17T18:06:48.251Z,25.47
2022-11-17T18:09:19.116Z,25.70
2022-11-17T18:11:50.064Z,28.53
2022-11-17T18:14:22.368Z,26.77
2022-11-17T18:16:50.986Z,27.13
2022-11-17T18:19:19.413Z,29.97
2022-11-17T18:21:46.881Z,24.30
2022-11-17T18:24:14.026Z,25.23
2022-11-17T18:26:47.515Z,24.17
2022-11-17T18:29:18.689Z,22.77
2022-11-17T18:31:47.570Z,21.30
2022-11-17T18:34:26.351Z,22.63
2022-11-17T18:36:55.791Z,21.30
2022-11-17T18:39:23.448Z,20.90
2022-11-17T18:41:50.723Z,22.37
2022-11-17T18:44:19.614Z,20.80
2022-11-17T18:46:50.420Z,24.80
2022-11-17T18:49:17.768Z,22.17
2022-11-17T18:51:45.768Z,22.67
2022-11-17T18:54:13.459Z,19.83
2022-11-17T18:56:40.587Z,21.70
2022-11-17T18:59:11.458Z,20.10
2022-11-17T19:01:42.195Z,21.90
2022-11-17T19:04:13.538Z,22.47
2022-11-17T19:06:40.914Z,19.83
2022-11-17T19:09:08.243Z,22.47
2022-11-17T19:11:35.319Z,22.97
2022-11-17T19:14:04.151Z,22.47
2022-11-17T19:16:32.781Z,22.50
2022-11-17T19:19:00.463Z,21.87
2022-11-17T19:21:31.669Z,25.63
2022-11-17T19:24:03.204Z,26.60
2022-11-17T19:26:34.139Z,22.43
2022-11-17T19:29:09.876Z,24.30
2022-11-17T19:31:39.863Z,22.57
2022-11-17T19:34:06.973Z,27.73
2022-11-17T19:36:34.617Z,22.63
2022-11-17T19:39:03.672Z,23.03
2022-11-17T19:41:38.209Z,26.00
2022-11-17T19:44:08.639Z,37.00
2022-11-17T19:46:36.904Z,26.53
2022-11-17T19:49:06.205Z,23.50
2022-11-17T19:51:36.853Z,23.37
2022-11-17T19:54:08.350Z,28.20
2022-11-17T19:56:39.349Z,24.23
2022-11-17T19:59:11.001Z,31.63
2022-11-17T20:01:41.132Z,28.17
2022-11-17T20:04:08.187Z,30.43
2022-11-17T20:06:38.301Z,27.57
2022-11-17T20:09:12.061Z,30.43
2022-11-17T20:11:40.147Z,30.87
2022-11-17T20:14:07.736Z,23.30
2022-11-17T20:16:36.656Z,24.57
2022-11-17T20:19:03.708Z,25.93
2022-11-17T20:21:31.424Z,22.83
2022-11-17T20:23:59.276Z,23.60
2022-11-17T20:26:31.876Z,27.97
2022-11-17T20:29:00.569Z,24.20
2022-11-17T20:31:32.110Z,24.93
2022-11-17T20:34:01.484Z,25.90
2022-11-17T20:36:32.631Z,22.03
2022-11-17T20:39:03.508Z,21.83
2022-11-17T20:41:31.326Z,22.00
2022-11-17T20:44:00.571Z,22.43
2022-11-17T20:46:28.191Z,21.13
2022-11-17T20:48:55.466Z,20.10
2022-11-17T20:51:25.202Z,20.77
2022-11-17T20:53:52.779Z,22.03
2022-11-17T20:56:20.303Z,22.60
2022-11-17T20:58:47.461Z,21.63
2022-11-17T21:01:21.588Z,18.93
2022-11-17T21:03:49.257Z,19.23
2022-11-17T21:06:16.778Z,19.47
2022-11-17T21:08:45.535Z,17.40
2022-11-17T21:11:41.881Z,21.47
2022-11-17T21:14:12.635Z,20.37
2022-11-17T21:16:45.504Z,20.90
2022-11-17T21:19:14.522Z,18.97
2022-11-17T21:21:43.685Z,21.93
2022-11-17T21:24:11.361Z,21.03
2022-11-17T21:26:38.510Z,21.07
2022-11-17T21:29:06.923Z,21.53
2022-11-17T21:31:43.978Z,19.07
2022-11-17T21:34:17.500Z,21.90
2022-11-17T21:36:44.625Z,19.60
2022-11-17T21:39:18.045Z,20.27
2022-11-17T21:41:45.743Z,21.10
2022-11-17T21:44:15.749Z,24.13
2022-11-17T21:46:42.842Z,23.33
2022-11-17T21:49:09.832Z,22.50
2022-11-17T21:51:38.470Z,22.37
2022-11-17T21:54:10.011Z,21.60
2022-11-17T21:56:37.745Z,24.63
2022-11-17T21:59:13.265Z,23.73
2022-11-17T22:01:40.680Z,22.90
2022-11-17T22:04:07.801Z,25.13
2022-11-17T22:06:35.106Z,24.93
2022-11-17T22:09:02.124Z,24.70
2022-11-17T22:11:37.678Z,21.80
2022-11-17T22:14:19.250Z,22.53
2022-11-17T22:16:51.879Z,22.73
2022-11-17T22:19:21.806Z,21.83
2022-11-17T22:21:52.569Z,22.07
2022-11-17T22:24:21.161Z,22.77
2022-11-17T22:26:48.811Z,21.70
2022-11-17T22:29:21.763Z,22.70
2022-11-17T22:31:50.529Z,20.93
2022-11-17T22:34:18.581Z,21.20
2022-11-17T22:36:46.022Z,24.30
2022-11-17T22:39:13.346Z,24.43
2022-11-17T22:41:40.365Z,25.27
2022-11-17T22:44:07.454Z,25.70
2022-11-17T22:46:36.065Z,23.03
2022-11-17T22:49:03.514Z,26.37
2022-11-17T22:51:49.376Z,25.37
2022-11-17T22:54:16.630Z,27.37
2022-11-17T22:56:43.610Z,23.00
2022-11-17T22:59:10.614Z,25.27
2022-11-17T23:01:38.037Z,26.33
2022-11-17T23:04:06.069Z,27.23
2022-11-17T23:06:33.154Z,23.93
2022-11-17T23:09:00.213Z,23.47
2022-11-17T23:11:43.404Z,22.87
2022-11-17T23:14:14.051Z,28.77
2022-11-17T23:16:41.274Z,25.53
2022-11-17T23:19:13.178Z,26.20
2022-11-17T23:21:40.788Z,24.20
2022-11-17T23:24:09.859Z,24.47
2022-11-17T23:26:36.859Z,24.00
2022-11-17T23:29:03.936Z,23.33
2022-11-17T23:31:30.943Z,23.63
2022-11-17T23:33:57.976Z,25.20
2022-11-17T23:36:25.143Z,24.43
2022-11-17T23:38:54.771Z,24.80
2022-11-17T23:41:21.914Z,26.67
2022-11-17T23:43:54.326Z,27.80
2022-11-17T23:46:26.336Z,26.10
2022-11-17T23:48:55.217Z,25.70
2022-11-17T23:51:26.744Z,27.43
2022-11-17T23:53:53.990Z,26.10
2022-11-17T23:56:21.569Z,24.63
2022-11-17T23:58:49.932Z,23.30
